NCAR-RAP Real-Time Weather Data

Output produced by METARs form (01 December 2020  17:37 UTC)
found at http://weather.rap.ucar.edu/surface/
 
KCLT 011652Z 32010G16KT 10SM BKN050 BKN140 06/M05 A2999 RMK AO2 SLP155 T00611050
KCLT 011552Z 31007G19KT 10SM FEW047 SCT140 SCT250 07/M05 A2999 RMK AO2 SLP155 T00671050
KCLT 011452Z 25007KT 10SM FEW050 FEW120 SCT250 05/M04 A2997 RMK AO2 SLP148 T00501044 51027
KCLT 011352Z 25006KT 10SM FEW070 FEW120 04/M04 A2994 RMK AO2 SLP140 T00391039
KCLT 011252Z 25003KT 10SM FEW070 FEW120 02/M04 A2991 RMK AO2 SLP130 T00221039
KCLT 011152Z 25005KT 10SM FEW070 02/M04 A2988 RMK AO2 SLP121 70020 T00171039 10056 20017 53028
KCLT 011052Z 26004KT 10SM OVC065 03/M02 A2985 RMK AO2 SLP110 T00281022
KCLT 010952Z 30006KT 10SM CLR 03/M05 A2982 RMK AO2 SLP097 T00331050
KCLT 010852Z 27008KT 10SM BKN095 04/M02 A2980 RMK AO2 SLP090 T00391022 53014
KCLT 010752Z 26006KT 10SM BKN090 BKN100 04/M02 A2978 RMK AO2 SLP084 T00441022
KCLT 010652Z 24006KT 10SM FEW040 BKN090 04/M02 A2977 RMK AO2 SLP079 T00441017
KCLT 010552Z 27009KT 10SM BKN042 OVC060 06/M01 A2976 RMK AO2 RAE04 SLP075 P0000 60000 T00561011 10089 20056 53012
KCLT 010452Z 27008KT 10SM -RA FEW035 OVC045 06/00 A2975 RMK AO2 RAB42 SLP072 P0000 T00610000 401780061
KCLT 010352Z 26005KT 10SM FEW033 OVC045 07/00 A2973 RMK AO2 SLP065 T00720000
KCLT 010252Z 28004KT 10SM OVC048 08/01 A2972 RMK AO2 SLP062 T00780011 51015